Time;durP1;ratioP1;P1;durP2;ratioP2;P2;SDS_P1;SDS_P2;PMS_P1;PMS_P2;Temp;Humidity;BMP_temperature;BMP_pressure;BME280_temperature;BME280_humidity;BME280_pressure;Samples;Min_cycle;Max_cycle;Signal;HPM_P1;HPM_P2
2024/03/31 00:00:12;;;;;;;9.18;2.80;;;;;;;14.96;43.27;93925.28;5043360;28;20021;-76
2024/03/31 00:02:38;;;;;;;11.25;2.47;;;;;;;14.97;43.16;93921.47;5043203;28;20319;-76
2024/03/31 00:05:04;;;;;;;10.90;1.95;;;;;;;15.01;43.48;93921.59;5043358;28;20029;-76
2024/03/31 00:07:30;;;;;;;10.13;2.15;;;;;;;15.04;44.05;93920.91;5043346;28;20088;-76
2024/03/31 00:09:56;;;;;;;9.07;2.35;;;;;;;14.93;44.33;93909.84;5043184;28;20188;-76
2024/03/31 00:12:21;;;;;;;8.18;2.50;;;;;;;14.88;44.27;93909.31;5043189;28;20037;-76
2024/03/31 00:14:47;;;;;;;11.00;2.25;;;;;;;14.86;44.11;93904.28;5042947;28;20032;-76
2024/03/31 00:17:12;;;;;;;8.52;2.47;;;;;;;14.83;44.39;93905.72;5043211;28;20323;-76
2024/03/31 00:19:38;;;;;;;12.40;1.80;;;;;;;14.84;44.24;93914.59;5041845;28;20029;-75
2024/03/31 00:22:04;;;;;;;10.25;2.38;;;;;;;14.80;44.17;93886.88;5043167;28;20017;-76
2024/03/31 00:24:30;;;;;;;11.38;1.90;;;;;;;14.79;44.12;93898.72;5043098;28;20218;-76
2024/03/31 00:26:55;;;;;;;9.80;2.15;;;;;;;14.84;44.45;93906.53;5043137;28;20018;-76
2024/03/31 00:29:21;;;;;;;11.77;2.08;;;;;;;14.77;44.15;93906.31;5043041;28;20025;-76
2024/03/31 00:31:46;;;;;;;5.78;2.05;;;;;;;14.75;44.06;93898.59;5042088;28;20025;-76
2024/03/31 00:34:13;;;;;;;6.85;1.80;;;;;;;14.75;44.31;93892.44;5042616;28;20113;-76
2024/03/31 00:36:39;;;;;;;4.50;1.65;;;;;;;14.78;43.89;93903.28;5042697;28;20024;-76
2024/03/31 00:39:04;;;;;;;6.80;2.25;;;;;;;14.75;43.83;93895.91;5042721;28;20096;-76
2024/03/31 00:41:30;;;;;;;3.45;1.55;;;;;;;14.81;43.86;93899.16;5042783;28;20099;-76
2024/03/31 00:43:55;;;;;;;6.85;1.83;;;;;;;14.83;43.41;93894.22;5042559;28;20350;-76
2024/03/31 00:46:21;;;;;;;6.45;2.20;;;;;;;14.85;43.59;93887.38;5042706;28;20075;-76
2024/03/31 00:48:46;;;;;;;6.50;1.80;;;;;;;14.89;43.74;93887.50;5042848;28;20048;-76
2024/03/31 00:51:11;;;;;;;5.55;1.73;;;;;;;14.94;43.27;93889.16;5042662;28;20013;-76
2024/03/31 00:53:37;;;;;;;8.95;1.80;;;;;;;14.94;43.22;93875.75;5042270;28;20041;-76
2024/03/31 00:56:02;;;;;;;8.48;2.58;;;;;;;14.99;43.48;93888.94;5042522;28;20021;-76
2024/03/31 00:58:28;;;;;;;9.07;2.22;;;;;;;15.03;43.59;93881.78;5042546;28;20017;-76
2024/03/31 01:00:54;;;;;;;7.35;2.05;;;;;;;15.07;43.29;93873.81;5042506;28;20052;-76
2024/03/31 01:03:30;;;;;;;17.63;2.72;;;;;;;15.09;43.27;93874.25;5042351;28;20079;-76
2024/03/31 01:05:58;;;;;;;5.38;2.10;;;;;;;15.10;43.54;93871.25;5042541;28;20025;-76
2024/03/31 01:08:24;;;;;;;9.63;1.70;;;;;;;15.10;43.60;93887.34;5042538;28;20272;-76
2024/03/31 01:10:51;;;;;;;8.82;3.22;;;;;;;15.08;43.85;93894.16;5042208;28;20021;-77
2024/03/31 01:13:16;;;;;;;11.02;1.90;;;;;;;14.99;44.15;93889.72;5042310;28;20033;-76
2024/03/31 01:15:42;;;;;;;34.40;4.40;;;;;;;14.95;44.40;93896.88;5042326;28;20074;-76
2024/03/31 01:18:08;;;;;;;9.07;2.85;;;;;;;14.95;44.41;93904.94;5041090;28;20108;-76
2024/03/31 01:20:33;;;;;;;9.60;2.03;;;;;;;14.96;44.50;93913.75;5041998;28;20097;-75
2024/03/31 01:23:01;;;;;;;4.60;1.83;;;;;;;14.94;44.50;93916.81;5042408;28;20227;-75
2024/03/31 01:25:27;;;;;;;10.18;2.22;;;;;;;14.94;44.72;93916.00;5042136;28;20223;-76
2024/03/31 01:27:52;;;;;;;6.30;1.80;;;;;;;14.91;45.05;93919.38;5042096;28;20092;-76
2024/03/31 01:30:17;;;;;;;8.75;2.25;;;;;;;14.84;45.60;93911.91;5041854;28;20026;-76
2024/03/31 01:32:45;;;;;;;12.68;2.10;;;;;;;14.84;46.01;93919.94;5042050;28;20056;-76
2024/03/31 01:35:10;;;;;;;9.07;2.25;;;;;;;14.84;45.92;93918.03;5041888;28;20271;-76
2024/03/31 01:37:35;;;;;;;12.20;2.03;;;;;;;14.84;46.20;93917.25;5041915;28;20192;-76
2024/03/31 01:40:01;;;;;;;11.48;2.80;;;;;;;14.83;46.27;93924.50;5041855;28;20033;-76
2024/03/31 01:42:26;;;;;;;6.65;2.03;;;;;;;14.80;46.26;93919.84;5042737;28;20059;-76
2024/03/31 01:44:52;;;;;;;13.00;3.08;;;;;;;14.79;46.59;93918.25;5045879;28;20081;-76
2024/03/31 01:47:17;;;;;;;8.63;2.10;;;;;;;14.78;47.04;93923.97;5046032;28;20214;-76
2024/03/31 01:49:42;;;;;;;14.38;2.55;;;;;;;14.78;47.12;93907.88;5045813;28;20017;-76
2024/03/31 01:52:08;;;;;;;7.32;2.10;;;;;;;14.77;47.11;93919.72;5045947;28;20032;-76
2024/03/31 01:54:35;;;;;;;7.82;1.80;;;;;;;14.76;47.35;93915.50;5046144;28;20088;-75
2024/03/31 01:57:00;;;;;;;15.65;2.63;;;;;;;14.75;47.35;93924.66;5044382;28;20025;-76
2024/03/31 01:59:26;;;;;;;16.73;2.75;;;;;;;14.77;47.28;93925.09;5044868;28;20097;-76
2024/03/31 02:01:51;;;;;;;12.02;2.42;;;;;;;14.74;47.36;93917.72;5044335;28;20040;-76
2024/03/31 02:04:16;;;;;;;17.95;3.33;;;;;;;14.76;47.55;93920.84;5044562;28;20120;-75
2024/03/31 02:06:42;;;;;;;11.70;1.95;;;;;;;14.72;47.54;93920.75;5045312;28;20025;-76
2024/03/31 02:09:08;;;;;;;11.55;2.20;;;;;;;14.72;47.56;93928.00;5044469;28;20270;-75
2024/03/31 02:11:33;;;;;;;13.35;2.72;;;;;;;14.67;47.62;93925.53;5045454;28;20013;-77
2024/03/31 02:13:59;;;;;;;9.23;2.20;;;;;;;14.67;47.71;93917.50;5045591;28;20021;-75
2024/03/31 02:16:24;;;;;;;9.70;2.70;;;;;;;14.68;47.58;93930.59;5045351;28;20395;-76
2024/03/31 02:18:49;;;;;;;7.35;2.13;;;;;;;14.66;47.76;93926.69;5045381;28;20029;-75
2024/03/31 02:21:15;;;;;;;14.77;2.55;;;;;;;14.62;47.82;93921.97;5045410;28;20316;-76
2024/03/31 02:23:40;;;;;;;11.75;2.15;;;;;;;14.62;47.99;93924.66;5045496;28;20059;-76
2024/03/31 02:26:06;;;;;;;16.55;2.28;;;;;;;14.54;47.90;93932.78;5044587;28;20319;-76
2024/03/31 02:28:33;;;;;;;8.45;3.38;;;;;;;14.44;47.76;93931.34;5045324;28;20021;-76
2024/03/31 02:30:59;;;;;;;7.97;2.10;;;;;;;14.32;48.08;93934.78;5045180;28;20033;-76
2024/03/31 02:33:24;;;;;;;9.48;2.20;;;;;;;14.31;48.09;93932.44;5043690;28;20235;-75
2024/03/31 02:35:49;;;;;;;13.60;2.80;;;;;;;14.28;48.29;93933.91;5045044;28;20050;-76
2024/03/31 02:38:15;;;;;;;6.15;1.95;;;;;;;14.33;48.54;93940.94;5044935;28;20311;-76
2024/03/31 02:40:44;;;;;;;15.05;3.30;;;;;;;14.30;48.71;93938.94;5044768;28;20033;-75
2024/03/31 02:43:09;;;;;;;11.55;2.13;;;;;;;14.27;48.83;93947.63;5044822;28;20121;-76
2024/03/31 02:45:34;;;;;;;11.15;2.25;;;;;;;14.22;49.18;93949.41;5045098;28;20036;-75
2024/03/31 02:48:00;;;;;;;6.97;3.25;;;;;;;14.17;49.45;93946.97;5044828;28;20029;-76
2024/03/31 02:50:27;;;;;;;7.90;2.72;;;;;;;14.11;49.53;93945.63;5044748;28;20033;-75
2024/03/31 02:52:53;;;;;;;16.15;3.97;;;;;;;14.10;49.70;93940.56;5044943;28;20088;-75
2024/03/31 02:55:18;;;;;;;12.73;3.05;;;;;;;14.10;49.20;93944.03;5043919;28;20029;-75
2024/03/31 02:57:47;;;;;;;6.88;2.15;;;;;;;14.08;49.34;93956.22;5044644;28;20029;-76
2024/03/31 03:00:13;;;;;;;13.85;3.97;;;;;;;14.10;49.48;93954.75;5044628;28;20029;-76
2024/03/31 03:02:39;;;;;;;13.65;2.63;;;;;;;14.09;49.43;93958.56;5044598;28;20222;-76
2024/03/31 03:05:04;;;;;;;15.55;4.57;;;;;;;14.11;49.70;93953.66;5044494;28;20029;-76
2024/03/31 03:07:30;;;;;;;10.13;3.00;;;;;;;14.09;49.88;93949.75;5044339;28;20037;-76
2024/03/31 03:09:55;;;;;;;13.18;2.85;;;;;;;14.12;49.67;93957.88;5044419;28;20328;-75
2024/03/31 03:12:21;;;;;;;9.18;2.30;;;;;;;14.14;49.71;93966.38;5044370;28;20029;-76
2024/03/31 03:14:46;;;;;;;7.25;2.00;;;;;;;14.14;49.75;93962.91;5044240;28;20029;-76
2024/03/31 03:17:12;;;;;;;10.85;2.58;;;;;;;14.10;49.69;93962.78;5044142;28;20045;-76
2024/03/31 03:19:37;;;;;;;11.55;2.08;;;;;;;14.11;50.22;93971.63;5044292;28;20029;-76
2024/03/31 03:22:02;;;;;;;9.68;1.80;;;;;;;14.02;50.51;93971.72;5044502;28;20223;-75
2024/03/31 03:24:28;;;;;;;14.07;2.45;;;;;;;13.95;50.54;93969.59;5044328;28;20084;-75
2024/03/31 03:26:53;;;;;;;9.25;2.75;;;;;;;13.96;50.56;93962.31;5044179;28;20106;-76
2024/03/31 03:29:19;;;;;;;13.38;2.22;;;;;;;13.94;51.05;93961.88;5043899;28;20319;-76
2024/03/31 03:31:45;;;;;;;10.90;2.20;;;;;;;13.91;50.97;93959.88;5044217;28;20049;-75
2024/03/31 03:34:11;;;;;;;9.30;2.17;;;;;;;13.86;51.21;93952.81;5043985;28;20045;-75
2024/03/31 03:36:37;;;;;;;13.63;2.40;;;;;;;13.84;51.52;93963.88;5043825;28;20043;-75
2024/03/31 03:39:03;;;;;;;7.25;2.05;;;;;;;13.82;51.71;93965.31;5043785;28;20021;-75
2024/03/31 03:41:28;;;;;;;11.90;2.40;;;;;;;13.80;52.08;93968.31;5043799;28;20080;-75
2024/03/31 03:43:53;;;;;;;13.48;1.85;;;;;;;13.75;52.04;93973.88;5043667;28;20029;-75
2024/03/31 03:46:19;;;;;;;11.95;2.10;;;;;;;13.74;52.22;93972.31;5043722;28;20057;-76
2024/03/31 03:48:44;;;;;;;7.93;2.75;;;;;;;13.73;52.40;93981.44;5043591;28;20029;-75
2024/03/31 03:51:09;;;;;;;8.32;2.17;;;;;;;13.67;52.74;93980.09;5043719;28;20303;-75
2024/03/31 03:53:35;;;;;;;7.35;2.65;;;;;;;13.58;52.32;93988.22;5043517;28;20097;-75
2024/03/31 03:56:00;;;;;;;7.07;2.28;;;;;;;13.52;51.53;94005.59;5043674;28;20025;-76
2024/03/31 03:58:26;;;;;;;7.05;1.90;;;;;;;13.44;52.03;93999.19;5075600;28;20029;-76
2024/03/31 04:00:51;;;;;;;14.55;3.40;;;;;;;13.40;52.27;94003.63;5042642;28;20079;-75
2024/03/31 04:03:16;;;;;;;10.65;2.20;;;;;;;13.42;51.97;94006.75;5041864;28;20025;-76
2024/03/31 04:05:55;;;;;;;10.23;2.40;;;;;;;13.43;52.13;94005.66;5042307;28;20025;-76
2024/03/31 04:08:20;;;;;;;12.95;2.40;;;;;;;13.46;52.42;94014.16;5042922;28;20072;-76
2024/03/31 04:10:46;;;;;;;4.82;1.75;;;;;;;13.47;52.60;94008.44;5042232;28;20026;-76
2024/03/31 04:13:12;;;;;;;9.18;2.13;;;;;;;13.49;52.38;94013.47;5043250;28;20341;-75
2024/03/31 04:15:37;;;;;;;12.30;2.47;;;;;;;13.51;52.39;94019.28;5043167;28;20057;-76
2024/03/31 04:18:02;;;;;;;18.40;3.65;;;;;;;13.51;52.44;94013.94;5042821;28;20028;-75
2024/03/31 04:20:28;;;;;;;8.20;1.83;;;;;;;13.50;52.31;94017.75;5042851;28;20025;-75
2024/03/31 04:22:53;;;;;;;9.82;1.85;;;;;;;13.51;52.43;94021.97;5043218;28;20029;-75
2024/03/31 04:25:19;;;;;;;15.50;2.58;;;;;;;13.50;52.45;94023.09;5042962;28;20033;-75
2024/03/31 04:27:44;;;;;;;8.02;2.65;;;;;;;13.51;52.67;94012.03;5041988;28;20051;-75
2024/03/31 04:30:10;;;;;;;6.22;2.63;;;;;;;13.47;52.44;94013.03;5042799;28;20025;-75
2024/03/31 04:32:35;;;;;;;14.88;2.70;;;;;;;13.52;52.23;94004.81;5043101;28;20040;-75
2024/03/31 04:35:01;;;;;;;17.67;3.38;;;;;;;13.53;52.41;94009.03;5042761;28;20299;-75
2024/03/31 04:37:26;;;;;;;10.88;3.20;;;;;;;13.54;52.29;94008.72;5042507;28;20270;-75
2024/03/31 04:39:51;;;;;;;14.25;3.72;;;;;;;13.61;52.47;94008.19;5042773;28;20136;-76
2024/03/31 04:42:17;;;;;;;17.13;2.95;;;;;;;13.62;52.70;94017.81;5042743;28;20219;-75
2024/03/31 04:44:42;;;;;;;11.55;2.28;;;;;;;13.64;52.63;94020.94;5042573;28;20025;-75
2024/03/31 04:47:08;;;;;;;11.68;2.65;;;;;;;13.67;52.42;94041.69;5042436;28;20215;-75
2024/03/31 04:49:33;;;;;;;12.93;2.22;;;;;;;13.68;52.20;94045.16;5042843;28;20033;-76
2024/03/31 04:51:58;;;;;;;7.13;2.63;;;;;;;13.65;51.86;94051.94;5042687;28;20319;-75
2024/03/31 04:54:24;;;;;;;9.80;1.85;;;;;;;13.68;51.69;94051.31;5042461;28;20052;-76
2024/03/31 04:56:50;;;;;;;10.60;1.98;;;;;;;13.72;51.66;94062.94;5042435;28;20036;-76
2024/03/31 04:59:15;;;;;;;10.15;2.63;;;;;;;13.71;51.16;94064.03;5042617;28;20048;-75
2024/03/31 05:01:40;;;;;;;15.25;2.40;;;;;;;13.72;51.00;94062.94;5041643;28;20040;-76
2024/03/31 05:04:06;;;;;;;9.88;3.03;;;;;;;13.81;51.39;94068.22;5041234;28;20033;-75
2024/03/31 05:06:33;;;;;;;11.82;3.90;;;;;;;13.83;51.34;94071.34;5040811;28;20305;-76
2024/03/31 05:08:58;;;;;;;12.60;3.30;;;;;;;13.82;51.26;94073.25;5041065;28;20040;-75
2024/03/31 05:11:24;;;;;;;14.98;2.55;;;;;;;13.80;51.33;94080.84;5041253;28;20048;-75
2024/03/31 05:13:49;;;;;;;9.93;2.53;;;;;;;13.88;51.37;94075.72;5042049;28;20033;-76
2024/03/31 05:16:16;;;;;;;7.32;2.65;;;;;;;14.00;50.73;94089.16;5042201;28;20024;-75
2024/03/31 05:18:41;;;;;;;11.40;3.42;;;;;;;14.07;50.81;94091.34;5041885;28;20029;-75
2024/03/31 05:21:07;;;;;;;11.88;2.97;;;;;;;14.16;50.50;94079.41;5042371;28;20036;-76
2024/03/31 05:23:35;;;;;;;11.38;3.28;;;;;;;14.25;50.00;94088.16;5042397;28;20063;-76
2024/03/31 05:26:00;;;;;;;9.40;2.25;;;;;;;14.35;49.59;94088.84;5042184;28;20100;-76
2024/03/31 05:28:27;;;;;;;11.25;2.90;;;;;;;14.43;49.29;94080.72;5041180;28;20044;-75
2024/03/31 05:30:53;;;;;;;17.17;2.83;;;;;;;14.57;48.94;94080.47;5041895;28;20013;-76
2024/03/31 05:33:18;;;;;;;12.73;4.03;;;;;;;14.71;48.82;94082.03;5042013;28;20095;-76
2024/03/31 05:35:45;;;;;;;17.23;2.97;;;;;;;14.85;48.53;94080.59;5041832;28;20021;-76
2024/03/31 05:38:12;;;;;;;9.60;3.13;;;;;;;15.01;49.70;94075.34;5041918;28;20021;-76
2024/03/31 05:40:39;;;;;;;12.57;3.25;;;;;;;15.14;49.04;94080.72;5042040;28;20183;-76
2024/03/31 05:43:05;;;;;;;14.88;2.35;;;;;;;15.27;47.94;94071.56;5042053;28;20044;-76
2024/03/31 05:45:31;;;;;;;14.18;3.60;;;;;;;15.39;48.10;94082.28;5041983;28;20063;-76
2024/03/31 05:47:56;;;;;;;10.98;3.30;;;;;;;15.51;48.50;94065.38;5041967;28;20219;-76
2024/03/31 05:50:22;;;;;;;9.77;2.13;;;;;;;15.63;48.19;94076.09;5042115;28;20390;-76
2024/03/31 05:52:48;;;;;;;16.02;3.50;;;;;;;15.73;47.67;94069.47;5042056;28;20025;-76
2024/03/31 05:55:13;;;;;;;8.52;2.55;;;;;;;15.86;47.04;94077.53;5041925;28;20021;-76
2024/03/31 05:57:39;;;;;;;18.60;4.13;;;;;;;15.95;46.73;94080.84;5041808;28;20052;-76
2024/03/31 06:00:05;;;;;;;24.42;4.22;;;;;;;16.00;46.18;94078.69;5041847;28;20033;-76
2024/03/31 06:02:30;;;;;;;20.25;2.92;;;;;;;16.08;46.33;94079.69;5041443;28;20025;-76
2024/03/31 06:04:57;;;;;;;9.10;2.35;;;;;;;16.10;46.23;94077.44;5040216;28;20056;-76
2024/03/31 06:07:23;;;;;;;22.83;4.80;;;;;;;16.15;45.17;94084.47;5040738;28;20025;-76
2024/03/31 06:09:49;;;;;;;13.95;3.47;;;;;;;16.25;44.97;94086.66;5041380;28;20303;-76
2024/03/31 06:12:14;;;;;;;24.80;3.53;;;;;;;16.37;44.97;94091.22;5040805;28;20266;-76
2024/03/31 06:14:39;;;;;;;12.80;3.05;;;;;;;16.42;45.69;94082.88;5041412;28;20041;-76
2024/03/31 06:17:05;;;;;;;16.60;3.20;;;;;;;16.52;45.89;94077.00;5042053;28;20136;-76
2024/03/31 06:19:30;;;;;;;14.93;3.47;;;;;;;16.60;45.29;94086.03;5041836;28;20288;-76
2024/03/31 06:21:56;;;;;;;12.40;2.03;;;;;;;16.69;45.11;94085.88;5041805;28;20021;-76
2024/03/31 06:24:21;;;;;;;11.25;2.25;;;;;;;16.76;44.72;94078.00;5041524;28;20028;-76
2024/03/31 06:26:47;;;;;;;6.18;1.98;;;;;;;16.85;44.74;94078.63;5041619;28;20028;-76
2024/03/31 06:29:12;;;;;;;11.73;2.85;;;;;;;16.88;44.40;94069.88;5041224;28;20036;-76
2024/03/31 06:31:41;;;;;;;14.60;3.53;;;;;;;16.96;44.41;94079.69;5045250;28;20068;-76
2024/03/31 06:34:06;;;;;;;8.30;2.50;;;;;;;17.04;44.27;94076.03;5045021;28;20088;-76
2024/03/31 06:36:31;;;;;;;9.50;2.50;;;;;;;17.11;44.03;94072.72;5044276;28;20017;-75
2024/03/31 06:38:57;;;;;;;11.18;2.42;;;;;;;17.18;43.67;94074.81;5045130;28;20045;-76
2024/03/31 06:41:22;;;;;;;10.57;2.97;;;;;;;17.25;42.49;94074.97;5043811;28;20045;-75
2024/03/31 06:43:48;;;;;;;13.90;3.05;;;;;;;17.37;42.77;94072.16;5044984;28;20025;-76
2024/03/31 06:46:13;;;;;;;12.68;3.00;;;;;;;17.50;42.81;94082.81;5045170;28;20045;-76
2024/03/31 06:48:39;;;;;;;12.90;2.25;;;;;;;17.59;42.50;94088.81;5044955;28;20136;-76
2024/03/31 06:51:04;;;;;;;15.65;4.03;;;;;;;17.69;42.00;94090.16;5045162;28;20043;-76
2024/03/31 06:53:30;;;;;;;14.60;2.60;;;;;;;17.82;40.86;94083.53;5045114;28;20063;-76
2024/03/31 06:55:56;;;;;;;8.88;3.00;;;;;;;17.92;40.66;94079.53;5044816;28;20265;-76
2024/03/31 06:58:21;;;;;;;18.63;3.00;;;;;;;18.00;40.61;94081.22;5044720;28;20017;-76
2024/03/31 07:00:47;;;;;;;7.22;2.45;;;;;;;18.08;40.20;94074.84;5044709;28;20025;-76
2024/03/31 07:03:12;;;;;;;6.32;2.10;;;;;;;18.12;39.76;94083.00;5044747;28;20044;-76
2024/03/31 07:05:37;;;;;;;12.98;2.83;;;;;;;18.24;39.23;94086.34;5044717;28;20334;-76
2024/03/31 07:08:03;;;;;;;16.35;2.78;;;;;;;18.31;39.73;94079.53;5044651;28;20025;-76
2024/03/31 07:10:29;;;;;;;10.43;2.15;;;;;;;18.39;38.76;94083.91;5044615;28;20250;-76
2024/03/31 07:12:54;;;;;;;12.85;2.92;;;;;;;18.52;38.54;94082.63;5044402;28;20107;-76
2024/03/31 07:15:20;;;;;;;17.58;2.25;;;;;;;18.60;38.24;94091.63;5044624;28;20067;-76
2024/03/31 07:17:47;;;;;;;14.73;2.65;;;;;;;18.71;37.98;94089.91;5044351;28;20303;-76
2024/03/31 07:20:15;;;;;;;11.73;2.60;;;;;;;18.83;38.18;94095.16;5044360;28;20354;-76
2024/03/31 07:22:41;;;;;;;13.43;2.65;;;;;;;18.97;37.61;94091.13;5044404;28;20091;-76
2024/03/31 07:25:06;;;;;;;13.63;3.25;;;;;;;19.06;37.41;94091.69;5044329;28;20219;-76
2024/03/31 07:27:32;;;;;;;14.95;2.47;;;;;;;19.14;37.20;94092.59;5044434;28;20029;-76
2024/03/31 07:29:57;;;;;;;10.25;2.20;;;;;;;19.24;37.38;94091.97;5044303;28;20032;-76
2024/03/31 07:32:22;;;;;;;15.88;2.58;;;;;;;19.34;37.31;94091.34;5044257;28;20029;-76
2024/03/31 07:34:48;;;;;;;10.75;2.20;;;;;;;19.46;37.04;94087.69;5044162;28;20371;-76
2024/03/31 07:37:13;;;;;;;9.82;2.88;;;;;;;19.59;36.14;94090.94;5044122;28;20044;-76
2024/03/31 07:39:38;;;;;;;10.35;2.72;;;;;;;19.71;36.57;94096.16;5043885;28;20021;-76
2024/03/31 07:42:04;;;;;;;13.65;2.95;;;;;;;19.82;36.55;94090.91;5044050;28;20028;-77
2024/03/31 07:44:29;;;;;;;8.88;2.53;;;;;;;19.84;35.47;94096.72;5044129;28;20036;-76
2024/03/31 07:46:55;;;;;;;18.15;2.42;;;;;;;19.96;35.51;94077.56;5043965;28;20036;-76
2024/03/31 07:49:20;;;;;;;13.77;3.17;;;;;;;19.89;34.70;94084.81;5043935;28;20029;-76
2024/03/31 07:51:46;;;;;;;11.05;2.67;;;;;;;19.89;34.48;94090.25;5043946;28;20365;-76
2024/03/31 07:54:11;;;;;;;13.25;3.00;;;;;;;19.93;34.72;94082.94;5043695;28;20021;-76
2024/03/31 07:56:36;;;;;;;12.68;2.85;;;;;;;20.02;34.67;94086.13;5043726;28;20088;-76
2024/03/31 07:59:02;;;;;;;6.22;2.20;;;;;;;20.18;34.60;94080.53;5043742;28;20052;-76
2024/03/31 08:01:27;;;;;;;6.57;2.15;;;;;;;20.33;34.39;94084.19;5042388;28;20033;-76
2024/03/31 08:03:53;;;;;;;16.00;2.97;;;;;;;20.49;34.84;94078.56;5043746;28;20093;-76
2024/03/31 08:06:18;;;;;;;10.30;2.53;;;;;;;20.66;34.51;94079.91;5043484;28;20029;-76
2024/03/31 08:08:43;;;;;;;13.80;3.00;;;;;;;20.81;33.76;94073.50;5043036;28;20018;-75
2024/03/31 08:11:09;;;;;;;21.13;4.55;;;;;;;21.00;33.75;94075.22;5043263;28;20097;-76
2024/03/31 08:13:35;;;;;;;11.73;1.90;;;;;;;21.16;33.36;94070.31;5043350;28;20029;-75
2024/03/31 08:16:01;;;;;;;15.55;2.53;;;;;;;21.29;33.45;94068.13;5043427;28;20025;-76
2024/03/31 08:18:26;;;;;;;18.23;2.35;;;;;;;21.40;33.60;94073.59;5043358;28;20278;-76
2024/03/31 08:20:52;;;;;;;15.18;2.30;;;;;;;21.48;33.27;94075.25;5043174;28;20300;-76
2024/03/31 08:23:17;;;;;;;6.22;2.40;;;;;;;21.47;32.74;94073.66;5043242;28;20324;-76
2024/03/31 08:25:50;;;;;;;17.85;2.47;;;;;;;21.54;32.24;94067.53;5043373;28;20373;-76
2024/03/31 08:28:16;;;;;;;7.70;2.38;;;;;;;21.50;31.97;94059.38;5043161;28;20041;-76
2024/03/31 08:30:41;;;;;;;12.45;2.50;;;;;;;21.59;31.93;94075.31;5042903;28;20052;-76
2024/03/31 08:33:07;;;;;;;13.25;2.25;;;;;;;21.70;32.47;94064.53;5042988;28;20068;-76
2024/03/31 08:35:32;;;;;;;10.48;2.85;;;;;;;21.80;32.79;94053.75;5043138;28;20033;-76
2024/03/31 08:37:57;;;;;;;16.75;2.88;;;;;;;21.94;32.80;94057.66;5043101;28;20075;-76
2024/03/31 08:40:30;;;;;;;13.68;2.60;;;;;;;22.08;32.27;94057.72;5042771;28;20029;-77
2024/03/31 08:43:03;;;;;;;18.35;2.78;;;;;;;22.21;31.84;94050.81;5042792;28;20087;-76
2024/03/31 08:45:30;;;;;;;9.15;2.58;;;;;;;22.34;31.74;94061.38;5042771;28;20036;-76
2024/03/31 08:47:58;;;;;;;9.48;2.33;;;;;;;22.46;30.99;94058.28;5042857;28;20041;-76
2024/03/31 08:50:25;;;;;;;16.83;2.15;;;;;;;22.58;30.62;94057.16;5042715;28;20045;-76
2024/03/31 08:52:51;;;;;;;14.10;3.00;;;;;;;22.63;30.84;94057.56;5042235;28;20033;-76
2024/03/31 08:55:16;;;;;;;7.82;2.05;;;;;;;22.68;30.16;94061.84;5042571;28;20032;-76
2024/03/31 08:57:42;;;;;;;13.25;2.00;;;;;;;22.72;30.57;94051.00;5042699;28;20276;-76
2024/03/31 09:00:08;;;;;;;13.98;2.47;;;;;;;22.73;30.42;94049.81;5042450;28;20058;-76
2024/03/31 09:02:34;;;;;;;17.40;3.50;;;;;;;22.74;30.84;94048.66;5042856;28;20021;-76
2024/03/31 09:05:00;;;;;;;11.65;2.25;;;;;;;22.81;30.66;94045.94;5042488;28;20022;-76
2024/03/31 09:07:25;;;;;;;10.93;1.90;;;;;;;22.91;30.53;94045.19;5042491;28;20059;-76
2024/03/31 09:09:51;;;;;;;11.43;2.33;;;;;;;23.03;30.15;94046.78;5042695;28;20017;-76
2024/03/31 09:12:16;;;;;;;13.32;2.28;;;;;;;23.16;30.10;94041.72;5042855;28;20017;-76
2024/03/31 09:14:42;;;;;;;13.10;2.97;;;;;;;23.22;29.39;94042.88;5042623;28;20032;-76
2024/03/31 09:17:11;;;;;;;16.17;2.65;;;;;;;23.11;30.19;94039.41;5042557;28;20030;-76
2024/03/31 09:19:39;;;;;;;11.98;2.58;;;;;;;23.18;30.52;94032.03;5042198;28;20021;-76
2024/03/31 09:22:05;;;;;;;13.43;2.10;;;;;;;23.29;29.81;94033.97;5042506;28;20017;-76
2024/03/31 09:24:32;;;;;;;11.25;2.97;;;;;;;23.38;30.36;94026.94;5042547;28;20076;-76
2024/03/31 09:26:58;;;;;;;15.55;1.98;;;;;;;23.48;29.48;94019.16;5042272;28;20092;-76
2024/03/31 09:29:26;;;;;;;10.55;2.15;;;;;;;23.60;29.76;94022.25;5042274;28;20226;-76
2024/03/31 09:32:02;;;;;;;13.82;2.60;;;;;;;23.67;29.13;94020.66;5042205;28;20128;-76
2024/03/31 09:34:27;;;;;;;23.55;2.40;;;;;;;23.77;29.37;94023.41;5041899;28;20056;-76
2024/03/31 09:36:55;;;;;;;16.27;3.35;;;;;;;23.90;28.16;94026.47;5041901;28;20077;-76
2024/03/31 09:39:20;;;;;;;8.30;2.78;;;;;;;24.03;28.15;94016.69;5041930;28;20266;-76
2024/03/31 09:41:49;;;;;;;11.40;2.25;;;;;;;24.15;29.16;94023.66;5041917;28;20033;-76
2024/03/31 09:44:15;;;;;;;10.15;2.30;;;;;;;24.30;28.07;94018.13;5042013;28;20025;-75
2024/03/31 09:46:40;;;;;;;19.25;2.47;;;;;;;24.33;28.78;94015.41;5041851;28;20092;-76
2024/03/31 09:49:10;;;;;;;10.23;2.60;;;;;;;24.39;27.72;94015.75;5041607;28;20029;-75
2024/03/31 09:51:41;;;;;;;24.42;3.10;;;;;;;24.43;27.70;94011.06;5042075;28;20084;-77
2024/03/31 09:54:13;;;;;;;19.87;2.93;;;;;;;24.32;26.91;94015.78;5042078;28;20025;-76
2024/03/31 09:56:43;;;;;;;12.02;2.65;;;;;;;24.23;27.40;94008.06;5041805;28;20067;-76
2024/03/31 09:59:10;;;;;;;14.38;2.53;;;;;;;24.12;27.91;94005.41;5041739;28;20059;-76
2024/03/31 10:01:40;;;;;;;15.23;2.60;;;;;;;24.29;27.51;94011.16;5041796;28;20021;-76
2024/03/31 10:04:31;;;;;;;7.35;2.28;;;;;;;24.19;27.14;93999.91;5043691;28;20051;-76
2024/03/31 10:06:58;;;;;;;7.50;2.30;;;;;;;24.16;27.17;94003.44;5045467;28;20108;-76
2024/03/31 10:09:24;;;;;;;7.80;2.28;;;;;;;24.30;27.51;94001.78;5044301;28;20029;-76
2024/03/31 10:11:52;;;;;;;10.75;2.13;;;;;;;24.49;27.67;93998.59;5045591;28;20037;-77
2024/03/31 10:14:21;;;;;;;13.80;3.65;;;;;;;24.68;26.85;93993.81;5045533;28;20022;-76
2024/03/31 10:16:47;;;;;;;9.52;2.58;;;;;;;24.83;26.81;93989.81;5045690;28;20025;-77
2024/03/31 10:19:15;;;;;;;10.13;2.50;;;;;;;24.87;26.46;93981.59;5045597;28;20036;-76
2024/03/31 10:21:41;;;;;;;9.75;2.97;;;;;;;24.96;26.61;93992.84;5045524;28;20037;-76
2024/03/31 10:24:09;;;;;;;15.65;2.50;;;;;;;25.03;26.80;93979.94;5045281;28;20061;-76
2024/03/31 10:26:35;;;;;;;14.25;2.85;;;;;;;25.14;26.97;93988.00;5045504;28;20052;-77
2024/03/31 10:29:01;;;;;;;13.60;2.80;;;;;;;25.22;26.69;93994.22;5044357;28;20327;-77
2024/03/31 10:31:26;;;;;;;5.82;2.50;;;;;;;25.30;27.03;93976.59;5045319;28;20017;-77
2024/03/31 10:33:52;;;;;;;17.33;2.83;;;;;;;25.33;26.78;93977.75;5077260;28;20045;-77
2024/03/31 10:36:19;;;;;;;13.15;2.80;;;;;;;25.38;26.67;93978.06;5045396;28;20028;-77
2024/03/31 10:38:44;;;;;;;16.52;3.35;;;;;;;25.42;26.44;93980.75;5045176;28;20026;-77
2024/03/31 10:41:11;;;;;;;10.88;3.78;;;;;;;25.26;26.31;93989.50;5044995;28;20227;-77
2024/03/31 10:43:37;;;;;;;14.95;2.83;;;;;;;25.35;25.92;93991.75;5045122;28;20029;-76
2024/03/31 10:46:03;;;;;;;14.38;3.80;;;;;;;25.26;26.16;93984.03;5045167;28;20049;-76
2024/03/31 10:48:29;;;;;;;16.85;2.80;;;;;;;25.15;25.29;93994.22;5044919;28;20204;-76
2024/03/31 10:50:55;;;;;;;11.98;2.80;;;;;;;24.97;25.59;93997.91;5044870;28;20026;-76
2024/03/31 10:53:25;;;;;;;16.58;3.00;;;;;;;24.98;26.19;93990.47;5044719;28;20192;-75
2024/03/31 10:55:51;;;;;;;11.13;2.92;;;;;;;24.86;26.00;93994.47;5044842;28;20028;-77
2024/03/31 10:58:16;;;;;;;14.10;2.80;;;;;;;24.52;25.69;93989.63;5044911;28;20032;-76
2024/03/31 11:00:43;;;;;;;11.23;2.70;;;;;;;24.68;25.71;93994.59;5044807;28;20027;-76
2024/03/31 11:03:09;;;;;;;18.02;3.00;;;;;;;24.82;26.88;93994.47;5044733;28;20025;-76
2024/03/31 11:05:37;;;;;;;31.85;3.38;;;;;;;24.92;25.79;93994.81;5044797;28;20021;-77
2024/03/31 11:08:02;;;;;;;19.38;2.88;;;;;;;24.97;25.47;94000.63;5044696;28;20331;-76
2024/03/31 11:10:31;;;;;;;19.00;3.90;;;;;;;25.00;25.30;94005.25;5044532;28;20080;-76
2024/03/31 11:12:56;;;;;;;17.58;3.20;;;;;;;24.72;25.54;93994.56;5044495;28;20029;-76
2024/03/31 11:15:21;;;;;;;15.20;2.78;;;;;;;24.76;26.54;93990.63;5043809;28;20072;-76
2024/03/31 11:17:48;;;;;;;13.70;3.13;;;;;;;24.88;26.46;93997.56;5044516;28;20333;-76
2024/03/31 11:20:14;;;;;;;23.27;4.72;;;;;;;25.02;26.62;93985.78;5044229;28;20235;-76